Time;durP1;ratioP1;P1;durP2;ratioP2;P2;SDS_P1;SDS_P2;PMS_P1;PMS_P2;Temp;Humidity;BMP_temperature;BMP_pressure;BME280_temperature;BME280_humidity;BME280_pressure;Samples;Min_cycle;Max_cycle;Signal;HPM_P1;HPM_P2
2023/09/20 00:01:52;;;;;;;1.90;1.17;;;;;;;21.02;54.29;100698.59;5111060;28;20051;-74
2023/09/20 00:04:19;;;;;;;2.35;1.27;;;;;;;21.18;54.33;100716.50;5118565;28;20031;-74
2023/09/20 00:06:45;;;;;;;1.85;1.10;;;;;;;20.97;54.18;100690.22;5112904;28;20074;-74
2023/09/20 00:09:11;;;;;;;1.88;1.10;;;;;;;20.99;54.03;100690.88;5116829;28;20043;-74
2023/09/20 00:11:36;;;;;;;2.88;1.33;;;;;;;21.18;54.29;100716.50;5108480;28;20759;-74
2023/09/20 00:14:02;;;;;;;2.70;1.40;;;;;;;21.12;54.23;100709.97;5113947;28;20024;-74
2023/09/20 00:16:29;;;;;;;1.83;1.10;;;;;;;21.17;54.30;100718.34;5111324;28;20031;-74
2023/09/20 00:18:54;;;;;;;2.05;1.30;;;;;;;21.17;54.36;100717.53;5106105;28;20028;-74
2023/09/20 00:21:20;;;;;;;2.50;1.30;;;;;;;20.75;54.11;100650.63;5112668;28;20491;-74
2023/09/20 00:23:45;;;;;;;1.83;1.05;;;;;;;21.18;54.37;100727.31;5111524;28;20032;-74
2023/09/20 00:26:13;;;;;;;2.75;1.17;;;;;;;21.17;54.17;100720.22;5120344;28;20519;-74
2023/09/20 00:28:39;;;;;;;2.22;1.30;;;;;;;21.17;54.31;100717.53;5117834;28;20019;-74
2023/09/20 00:31:05;;;;;;;2.03;1.13;;;;;;;21.17;54.43;100718.34;5114903;28;20016;-74
2023/09/20 00:33:31;;;;;;;2.53;1.55;;;;;;;21.01;54.32;100693.38;5112195;28;20027;-74
2023/09/20 00:35:56;;;;;;;2.38;1.08;;;;;;;21.11;54.22;100708.31;5119833;28;20030;-74
2023/09/20 00:38:21;;;;;;;3.28;1.30;;;;;;;21.03;54.20;100697.59;5113043;28;20055;-74
2023/09/20 00:40:47;;;;;;;2.10;1.15;;;;;;;20.91;54.21;100685.56;5113554;28;20032;-74
2023/09/20 00:43:13;;;;;;;2.55;1.50;;;;;;;21.01;54.40;100693.38;5125597;28;20550;-73
2023/09/20 00:45:40;;;;;;;2.35;1.42;;;;;;;21.16;54.42;100716.69;5112079;28;20065;-74
2023/09/20 00:48:07;;;;;;;1.75;1.30;;;;;;;21.16;54.20;100721.25;5116136;28;20084;-74
2023/09/20 00:50:34;;;;;;;2.88;1.10;;;;;;;21.16;54.12;100716.69;5117166;28;20069;-74
2023/09/20 00:53:00;;;;;;;2.22;1.30;;;;;;;21.02;54.53;100695.06;5110188;28;20079;-74
2023/09/20 00:55:29;;;;;;;2.78;1.13;;;;;;;21.09;54.37;100706.81;5118021;28;20076;-75
2023/09/20 00:58:01;;;;;;;2.30;1.15;;;;;;;20.92;54.34;100669.16;5118484;28;20047;-74
2023/09/20 01:00:29;;;;;;;3.17;1.27;;;;;;;21.01;54.36;100685.28;5113846;28;20042;-74
2023/09/20 01:02:57;;;;;;;2.15;1.30;;;;;;;21.05;54.40;100694.69;5124224;28;20047;-74
2023/09/20 01:05:23;;;;;;;1.58;1.02;;;;;;;21.15;54.19;100719.56;5113354;28;20024;-74
2023/09/20 01:07:50;;;;;;;1.90;1.10;;;;;;;21.14;54.40;100710.63;5106109;28;20496;-74
2023/09/20 01:10:16;;;;;;;1.90;1.23;;;;;;;21.11;54.16;100707.44;5116612;28;20039;-74
2023/09/20 01:12:41;;;;;;;1.88;1.02;;;;;;;21.02;54.26;100687.78;5112635;28;20024;-74
2023/09/20 01:15:10;;;;;;;2.15;1.30;;;;;;;20.86;54.17;100664.53;5125266;27;20027;-74
2023/09/20 01:17:45;;;;;;;;;;;;;;;21.14;54.09;100701.66;5122331;28;20476;-74
2023/09/20 01:20:19;;;;;;;3.08;1.30;;;;;;;21.11;54.38;100702.03;5112435;28;19915;-74
2023/09/20 01:22:46;;;;;;;3.28;1.33;;;;;;;21.13;54.25;100697.31;5098825;28;20016;-74
2023/09/20 01:25:19;;;;;;;1.92;1.23;;;;;;;21.12;54.17;100701.03;5116997;28;20096;-74
2023/09/20 01:27:44;;;;;;;4.40;1.17;;;;;;;21.00;54.32;100687.16;5091310;28;20034;-74
2023/09/20 01:30:11;;;;;;;2.17;1.08;;;;;;;20.94;54.41;100674.38;5111123;28;20118;-74
2023/09/20 01:32:37;;;;;;;3.00;1.30;;;;;;;21.06;54.28;100697.19;5104821;28;20032;-74
2023/09/20 01:35:03;;;;;;;3.63;1.30;;;;;;;20.83;54.32;100656.78;5109585;28;20062;-74
2023/09/20 01:37:28;;;;;;;2.38;1.35;;;;;;;21.12;54.27;100711.84;5108916;28;20032;-74
2023/09/20 01:39:54;;;;;;;2.05;1.27;;;;;;;20.93;54.22;100665.44;5107873;28;20027;-74
2023/09/20 01:42:21;;;;;;;1.95;1.15;;;;;;;21.12;54.42;100692.94;5109505;28;20079;-74
2023/09/20 01:44:48;;;;;;;1.70;1.00;;;;;;;21.06;54.30;100680.16;5122953;28;20020;-74
2023/09/20 01:47:13;;;;;;;2.65;1.17;;;;;;;21.10;54.28;100692.25;5104719;28;20035;-74
2023/09/20 01:49:39;;;;;;;2.55;1.80;;;;;;;21.10;54.56;100693.09;5111442;28;20024;-74
2023/09/20 01:52:06;;;;;;;2.92;1.67;;;;;;;21.11;54.20;100691.22;5108543;28;20095;-74
2023/09/20 01:54:32;;;;;;;2.85;1.58;;;;;;;20.97;54.26;100660.50;5108105;28;20031;-74
2023/09/20 01:56:57;;;;;;;2.25;1.42;;;;;;;21.03;54.35;100658.91;5120287;28;20015;-74
2023/09/20 01:59:22;;;;;;;2.35;1.35;;;;;;;21.04;54.20;100669.53;5110921;28;20038;-74
2023/09/20 02:01:50;;;;;;;3.97;1.35;;;;;;;20.77;54.49;100624.25;5109294;28;20028;-74
2023/09/20 02:04:16;;;;;;;1.92;1.25;;;;;;;21.10;54.15;100662.53;5112855;28;20473;-74
2023/09/20 02:06:42;;;;;;;3.10;1.40;;;;;;;21.09;54.18;100658.16;5111080;28;20032;-74
2023/09/20 02:09:08;;;;;;;3.25;1.40;;;;;;;21.07;54.37;100643.97;5106776;28;20079;-74
2023/09/20 02:11:33;;;;;;;3.30;1.60;;;;;;;21.08;54.51;100649.22;5114461;28;20028;-74
2023/09/20 02:14:00;;;;;;;2.42;1.38;;;;;;;20.89;54.23;100629.00;5114062;27;20111;-74
2023/09/20 02:16:25;;;;;;;3.13;1.65;;;;;;;20.91;54.20;100626.13;5110749;28;20031;-74
2023/09/20 02:18:52;;;;;;;1.65;1.17;;;;;;;21.08;54.38;100661.88;5116244;28;20032;-74
2023/09/20 02:21:18;;;;;;;2.25;1.25;;;;;;;21.08;54.34;100661.88;5112670;28;20028;-74
2023/09/20 02:23:43;;;;;;;1.50;1.10;;;;;;;21.07;54.19;100663.75;5092624;28;20039;-74
2023/09/20 02:26:09;;;;;;;2.92;1.70;;;;;;;21.07;54.24;100662.91;5114243;27;20032;-74
2023/09/20 02:28:34;;;;;;;2.53;1.17;;;;;;;21.05;54.27;100665.78;5120072;28;20609;-74
2023/09/20 02:31:00;;;;;;;2.05;1.10;;;;;;;20.92;53.94;100646.72;5115605;28;20028;-74
2023/09/20 02:33:26;;;;;;;1.98;1.23;;;;;;;21.05;54.19;100675.78;5115305;28;20062;-74
2023/09/20 02:35:51;;;;;;;2.10;1.08;;;;;;;21.06;54.45;100682.84;5100296;28;20058;-74
2023/09/20 02:38:17;;;;;;;2.45;1.10;;;;;;;20.80;53.88;100632.84;5105685;28;20388;-74
2023/09/20 02:40:46;;;;;;;2.92;1.30;;;;;;;20.88;54.30;100645.41;5122445;28;20015;-74
2023/09/20 02:43:13;;;;;;;1.98;1.17;;;;;;;20.83;54.18;100637.03;5108619;28;20027;-74
2023/09/20 02:45:39;;;;;;;1.83;1.20;;;;;;;20.75;54.49;100621.75;5115311;28;20023;-74
2023/09/20 02:48:06;;;;;;;2.42;1.23;;;;;;;20.78;54.51;100631.38;5114267;28;20102;-75
2023/09/20 02:50:32;;;;;;;2.22;1.40;;;;;;;21.03;54.46;100675.97;5113463;28;20020;-74
2023/09/20 02:52:58;;;;;;;1.83;1.30;;;;;;;20.88;54.21;100653.50;5116306;28;20055;-74
2023/09/20 02:55:23;;;;;;;1.95;1.50;;;;;;;21.03;54.51;100675.13;5114756;28;20499;-74
2023/09/20 02:57:50;;;;;;;2.20;1.30;;;;;;;21.03;54.29;100669.72;5113316;28;20032;-74
2023/09/20 03:00:18;;;;;;;2.22;1.30;;;;;;;21.03;54.32;100658.91;5116605;28;20034;-74
2023/09/20 03:02:54;;;;;;;1.98;1.30;;;;;;;21.01;54.26;100664.50;5109814;28;20043;-74
2023/09/20 03:05:21;;;;;;;2.08;1.20;;;;;;;20.93;54.24;100638.41;5112472;28;20031;-74
2023/09/20 03:07:48;;;;;;;1.67;1.10;;;;;;;20.94;54.45;100642.81;5120207;28;20534;-74
2023/09/20 03:10:15;;;;;;;2.40;1.25;;;;;;;20.88;54.53;100640.84;5111714;28;20044;-74
2023/09/20 03:12:43;;;;;;;3.38;1.20;;;;;;;21.00;54.35;100651.19;5115931;28;20104;-74
2023/09/20 03:15:10;;;;;;;3.80;1.50;;;;;;;20.71;54.19;100599.69;5118299;27;20468;-74
2023/09/20 03:17:37;;;;;;;2.78;1.45;;;;;;;20.99;54.14;100652.22;5106395;28;20020;-74
2023/09/20 03:20:16;;;;;;;2.47;1.40;;;;;;;21.00;54.53;100643.06;5122560;28;20420;-74
2023/09/20 03:22:42;;;;;;;2.47;1.35;;;;;;;20.89;54.43;100639.81;5114690;28;20016;-74
2023/09/20 03:25:14;;;;;;;4.70;1.58;;;;;;;20.96;54.39;100640.75;5108634;28;20821;-74
2023/09/20 03:27:43;;;;;;;3.35;1.38;;;;;;;20.86;54.45;100626.69;5099996;28;20535;-74
2023/09/20 03:30:12;;;;;;;4.45;1.83;;;;;;;20.98;54.53;100643.25;5119060;28;20024;-74
2023/09/20 03:32:40;;;;;;;;;;;;;;;20.99;54.55;100638.69;5112458;28;20035;-75
2023/09/20 03:35:06;;;;;;;2.33;1.52;;;;;;;20.97;54.16;100634.28;5116710;28;19916;-75
2023/09/20 03:37:32;;;;;;;2.85;1.23;;;;;;;20.96;54.51;100637.19;5109304;28;20380;-75
2023/09/20 03:39:58;;;;;;;2.53;1.33;;;;;;;20.80;54.22;100613.91;5122005;28;20038;-75
2023/09/20 03:42:24;;;;;;;2.72;1.50;;;;;;;20.95;54.62;100639.06;5107145;28;20023;-75
2023/09/20 03:44:49;;;;;;;2.50;1.60;;;;;;;20.81;54.20;100607.47;5104301;28;20885;-75
2023/09/20 03:47:16;;;;;;;1.90;1.30;;;;;;;20.95;54.51;100635.53;5107359;28;20544;-75
2023/09/20 03:49:42;;;;;;;2.78;1.42;;;;;;;20.94;54.52;100636.53;5112433;28;20024;-75
2023/09/20 03:52:07;;;;;;;2.30;1.45;;;;;;;20.93;54.63;100640.28;5106241;28;20020;-75
2023/09/20 03:54:33;;;;;;;5.05;1.60;;;;;;;20.95;54.33;100635.53;5110766;28;20019;-75
2023/09/20 03:56:59;;;;;;;2.72;1.38;;;;;;;20.94;54.40;100632.00;5119575;28;20023;-75
2023/09/20 03:59:26;;;;;;;3.38;1.23;;;;;;;20.89;54.04;100626.28;5107577;28;20058;-75
2023/09/20 04:01:52;;;;;;;1.80;1.40;;;;;;;20.77;54.18;100600.78;5107010;28;20039;-75
2023/09/20 04:04:17;;;;;;;1.77;1.17;;;;;;;20.83;54.51;100600.03;5105854;28;20035;-75
2023/09/20 04:06:44;;;;;;;2.08;1.38;;;;;;;20.78;54.34;100597.06;5097882;28;20015;-74
2023/09/20 04:09:10;;;;;;;1.77;1.15;;;;;;;20.77;54.42;100595.38;5120110;28;20055;-75
2023/09/20 04:11:40;;;;;;;2.70;1.42;;;;;;;20.93;54.56;100614.09;5108238;28;20024;-75
2023/09/20 04:14:08;;;;;;;1.73;1.20;;;;;;;20.91;54.28;100612.63;5105913;28;20831;-75
2023/09/20 04:16:39;;;;;;;2.80;1.33;;;;;;;20.93;54.51;100605.97;5109177;28;20034;-75
2023/09/20 04:19:05;;;;;;;3.17;1.50;;;;;;;20.76;54.43;100577.50;5122141;28;20035;-75
2023/09/20 04:21:30;;;;;;;2.80;1.52;;;;;;;20.83;54.21;100581.13;5111468;28;20034;-75
2023/09/20 04:23:56;;;;;;;1.83;1.15;;;;;;;20.73;54.26;100572.50;5110034;28;20106;-74
2023/09/20 04:26:21;;;;;;;2.67;1.70;;;;;;;20.83;54.48;100589.22;5117043;28;20517;-75
2023/09/20 04:28:48;;;;;;;2.17;1.30;;;;;;;20.82;54.26;100581.31;5114027;28;20031;-75
2023/09/20 04:31:14;;;;;;;2.28;1.10;;;;;;;20.72;54.43;100570.78;5109101;28;20024;-75
2023/09/20 04:33:39;;;;;;;2.42;1.27;;;;;;;20.91;54.66;100601.81;5104214;28;20035;-75
2023/09/20 04:36:04;;;;;;;2.25;1.40;;;;;;;19.81;54.29;100423.59;5111177;28;20835;-75
2023/09/20 04:38:30;;;;;;;1.88;1.20;;;;;;;20.87;54.49;100592.41;5111264;28;20028;-75
2023/09/20 04:40:56;;;;;;;2.95;1.25;;;;;;;20.90;54.23;100589.31;5109251;28;20027;-75
2023/09/20 04:43:22;;;;;;;2.38;1.40;;;;;;;20.89;54.66;100593.88;5111708;28;20095;-75
2023/09/20 04:45:47;;;;;;;1.83;1.20;;;;;;;20.68;54.37;100559.53;5110400;28;20031;-75
2023/09/20 04:48:13;;;;;;;1.88;1.30;;;;;;;20.89;54.30;100595.72;5110549;28;20039;-75
2023/09/20 04:50:38;;;;;;;2.83;1.50;;;;;;;20.80;54.59;100584.19;5112558;28;20039;-75
2023/09/20 04:53:03;;;;;;;2.30;1.40;;;;;;;20.58;54.28;100550.88;5107691;28;20032;-75
2023/09/20 04:55:29;;;;;;;2.38;1.40;;;;;;;20.85;54.24;100606.06;5111006;28;20036;-75
2023/09/20 04:57:55;;;;;;;2.63;1.27;;;;;;;20.88;54.36;100594.06;5102018;28;20058;-75
2023/09/20 05:00:26;;;;;;;2.47;1.35;;;;;;;20.87;54.45;100600.50;5107312;28;20032;-75
2023/09/20 05:02:51;;;;;;;2.20;1.42;;;;;;;20.49;54.06;100533.13;5115160;28;20028;-75
2023/09/20 05:05:16;;;;;;;2.75;1.40;;;;;;;20.60;54.30;100546.16;5109998;28;20032;-75
2023/09/20 05:07:43;;;;;;;2.97;1.38;;;;;;;20.87;54.45;100597.81;5115328;28;20038;-75
2023/09/20 05:10:08;;;;;;;1.40;1.20;;;;;;;20.86;54.59;100594.25;5116156;28;20052;-75
2023/09/20 05:12:34;;;;;;;2.35;1.25;;;;;;;20.78;54.63;100588.97;5112266;28;20067;-75
2023/09/20 05:14:59;;;;;;;1.98;1.20;;;;;;;20.72;54.46;100576.19;5116897;27;20526;-75
2023/09/20 05:17:24;;;;;;;2.22;1.40;;;;;;;20.81;54.42;100593.13;5120613;28;20096;-75
2023/09/20 05:19:50;;;;;;;1.98;1.17;;;;;;;20.86;54.39;100601.53;5117346;28;20015;-75
2023/09/20 05:22:15;;;;;;;2.55;1.50;;;;;;;20.32;54.22;100515.41;5108415;28;20022;-75
2023/09/20 05:24:40;;;;;;;2.67;1.40;;;;;;;20.60;54.28;100567.75;5120148;28;20032;-75
2023/09/20 05:27:06;;;;;;;3.42;1.83;;;;;;;20.54;54.39;100560.38;5112365;28;20047;-75
2023/09/20 05:29:32;;;;;;;2.08;1.15;;;;;;;20.36;54.40;100528.34;5115528;28;20551;-75
2023/09/20 05:31:57;;;;;;;2.95;1.75;;;;;;;20.63;54.65;100572.75;5120369;28;20031;-75
2023/09/20 05:34:23;;;;;;;2.75;1.48;;;;;;;20.84;54.54;100603.56;5111434;28;20016;-75
2023/09/20 05:36:51;;;;;;;1.52;1.30;;;;;;;20.66;54.90;100568.84;5113699;28;20854;-75
2023/09/20 05:39:17;;;;;;;4.13;1.42;;;;;;;20.56;54.53;100554.78;5116046;28;20092;-75
2023/09/20 05:41:43;;;;;;;3.30;1.42;;;;;;;20.62;54.09;100564.84;5110207;28;20070;-75
2023/09/20 05:44:10;;;;;;;2.20;1.30;;;;;;;20.83;54.65;100593.81;5118090;28;20020;-75
2023/09/20 05:46:35;;;;;;;2.83;1.50;;;;;;;20.83;54.47;100585.69;5117714;28;20028;-75
2023/09/20 05:49:00;;;;;;;1.95;1.27;;;;;;;20.68;54.70;100567.63;5109423;28;20041;-75
2023/09/20 05:51:26;;;;;;;2.15;1.30;;;;;;;20.82;54.40;100587.56;5118840;28;20094;-75
2023/09/20 05:53:51;;;;;;;3.78;1.48;;;;;;;20.82;54.55;100584.03;5109066;28;20073;-74
2023/09/20 05:56:18;;;;;;;2.35;1.60;;;;;;;20.75;54.57;100569.59;5111209;28;20024;-75
2023/09/20 05:58:44;;;;;;;2.35;1.38;;;;;;;20.55;54.27;100556.66;5107077;28;20023;-74
2023/09/20 06:01:09;;;;;;;2.40;1.40;;;;;;;20.66;54.59;100569.69;5121830;28;20184;-75
2023/09/20 06:03:36;;;;;;;2.28;1.17;;;;;;;20.81;54.58;100587.72;5100073;28;20567;-75
2023/09/20 06:06:03;;;;;;;2.72;1.17;;;;;;;20.17;54.32;100497.34;5108047;28;20062;-75
2023/09/20 06:08:29;;;;;;;2.53;1.52;;;;;;;20.53;54.49;100552.47;5106607;28;20075;-75
2023/09/20 06:10:54;;;;;;;5.05;1.73;;;;;;;20.74;54.78;100576.84;5109326;28;20028;-75
2023/09/20 06:13:20;;;;;;;2.20;1.40;;;;;;;20.78;54.48;100598.94;5121060;28;20026;-74
2023/09/20 06:15:45;;;;;;;2.53;1.40;;;;;;;20.80;54.72;100586.91;5108357;28;20049;-75
2023/09/20 06:18:10;;;;;;;4.15;1.08;;;;;;;20.66;54.43;100579.66;5110070;28;20071;-74
2023/09/20 06:20:36;;;;;;;2.28;1.35;;;;;;;20.64;54.52;100579.00;5110089;28;20062;-75
2023/09/20 06:23:03;;;;;;;2.75;1.38;;;;;;;20.56;54.33;100560.19;5107216;28;20099;-75
2023/09/20 06:25:29;;;;;;;2.15;1.52;;;;;;;20.65;54.34;100565.31;5111342;28;20039;-75
2023/09/20 06:27:54;;;;;;;2.17;1.35;;;;;;;20.81;54.27;100595.84;5092321;28;20024;-75
2023/09/20 06:30:20;;;;;;;2.05;1.30;;;;;;;20.66;54.36;100563.47;5107682;28;20027;-75
2023/09/20 06:32:46;;;;;;;2.58;1.20;;;;;;;20.68;54.80;100572.19;5115103;28;20035;-75
2023/09/20 06:35:14;;;;;;;2.03;1.45;;;;;;;20.54;54.40;100551.44;5110017;28;20024;-75
2023/09/20 06:37:39;;;;;;;2.20;1.38;;;;;;;20.74;54.41;100584.97;5103988;28;20028;-75
2023/09/20 06:40:16;;;;;;;2.75;1.75;;;;;;;20.81;54.49;100585.88;5114032;28;20039;-74
2023/09/20 06:42:42;;;;;;;2.58;1.40;;;;;;;20.81;54.40;100588.56;5105282;28;20022;-74
2023/09/20 06:45:11;;;;;;;1.80;1.20;;;;;;;20.75;54.69;100585.81;5111385;28;20039;-75
2023/09/20 06:47:39;;;;;;;;;;;;;;;20.82;54.44;100589.44;5113592;28;20055;-75
2023/09/20 06:50:04;;;;;;;1.65;1.38;;;;;;;20.77;54.62;100581.88;5110135;28;19915;-75
2023/09/20 06:52:30;;;;;;;2.55;1.50;;;;;;;20.79;54.48;100581.69;5113212;28;20027;-75
2023/09/20 06:54:55;;;;;;;1.85;1.02;;;;;;;20.78;54.69;100582.72;5105911;28;20443;-75
2023/09/20 06:57:21;;;;;;;2.13;1.40;;;;;;;20.51;54.68;100535.63;5107701;28;20064;-75
2023/09/20 06:59:51;;;;;;;2.17;1.65;;;;;;;20.82;54.70;100586.72;5113766;28;20088;-75
2023/09/20 07:02:16;;;;;;;3.20;1.92;;;;;;;20.56;54.33;100536.75;5101292;28;20080;-75
2023/09/20 07:04:42;;;;;;;3.72;1.40;;;;;;;20.59;54.68;100536.34;5106830;28;20039;-75
2023/09/20 07:07:07;;;;;;;2.03;1.10;;;;;;;20.79;54.67;100570.88;5116102;28;20037;-75
2023/09/20 07:09:34;;;;;;;3.22;1.33;;;;;;;20.80;54.14;100594.16;5111270;28;20044;-74
2023/09/20 07:12:01;;;;;;;2.05;1.40;;;;;;;20.84;54.40;100579.25;5109657;28;20046;-75
2023/09/20 07:14:30;;;;;;;2.00;1.38;;;;;;;20.84;54.36;100585.50;5114793;28;20556;-75
2023/09/20 07:16:55;;;;;;;2.38;1.33;;;;;;;20.85;54.49;100575.53;5110213;28;20059;-75
2023/09/20 07:19:23;;;;;;;1.50;1.15;;;;;;;20.86;54.61;100582.63;5110497;28;20031;-75
2023/09/20 07:21:50;;;;;;;2.40;1.30;;;;;;;20.86;54.48;100583.47;5116716;28;20012;-75
2023/09/20 07:24:15;;;;;;;2.70;1.45;;;;;;;20.72;54.49;100557.28;5108436;28;20047;-75
2023/09/20 07:26:45;;;;;;;1.73;1.30;;;;;;;20.86;54.80;100586.16;5112616;28;20020;-75
2023/09/20 07:29:14;;;;;;;2.67;1.23;;;;;;;20.35;54.28;100510.47;5100341;28;20016;-75
2023/09/20 07:31:40;;;;;;;1.92;1.17;;;;;;;20.88;54.36;100584.09;5107185;28;20392;-75
2023/09/20 07:34:11;;;;;;;3.60;1.63;;;;;;;20.84;54.72;100581.97;5115979;28;20095;-75
2023/09/20 07:36:40;;;;;;;1.92;1.20;;;;;;;20.61;54.36;100549.69;5112684;28;20231;-75
2023/09/20 07:39:08;;;;;;;1.60;1.30;;;;;;;20.82;54.41;100581.31;5092157;28;20092;-75
2023/09/20 07:41:33;;;;;;;1.70;1.20;;;;;;;20.25;54.52;100501.81;5116672;28;20099;-75
2023/09/20 07:43:58;;;;;;;1.67;1.23;;;;;;;20.50;54.30;100523.97;5114200;28;20035;-75
2023/09/20 07:46:27;;;;;;;2.63;1.30;;;;;;;20.72;54.64;100551.88;5109739;28;20047;-75
2023/09/20 07:48:52;;;;;;;3.40;1.33;;;;;;;20.91;54.34;100585.59;5118553;28;20023;-75
2023/09/20 07:51:23;;;;;;;3.13;1.38;;;;;;;20.86;54.57;100571.81;5111105;28;20034;-74
2023/09/20 07:53:54;;;;;;;2.42;1.73;;;;;;;20.92;54.64;100592.66;5108604;28;20027;-74
2023/09/20 07:56:20;;;;;;;1.88;1.20;;;;;;;20.92;54.38;100590.78;5117260;28;20030;-74
2023/09/20 07:58:45;;;;;;;2.70;1.50;;;;;;;20.78;54.54;100570.06;5108915;28;20092;-74
2023/09/20 08:01:20;;;;;;;2.33;1.00;;;;;;;20.86;54.29;100580.75;5115293;28;20023;-75
2023/09/20 08:03:50;;;;;;;3.22;1.27;;;;;;;20.78;54.37;100561.94;5113668;28;20035;-74
2023/09/20 08:06:17;;;;;;;2.13;1.48;;;;;;;20.72;54.53;100544.59;5105052;28;20392;-74
2023/09/20 08:08:42;;;;;;;2.80;1.30;;;;;;;20.84;54.54;100574.69;5106785;28;20133;-74
2023/09/20 08:11:07;;;;;;;1.88;1.20;;;;;;;20.95;54.25;100582.31;5104503;28;20028;-74
2023/09/20 08:13:33;;;;;;;1.50;1.25;;;;;;;20.92;54.27;100573.75;5104283;28;20499;-75
2023/09/20 08:16:02;;;;;;;2.50;1.23;;;;;;;20.87;54.44;100566.22;5112652;28;20028;-74
2023/09/20 08:21:11;;;;;;;2.65;1.40;;;;;;;20.82;54.51;100565.13;5110692;28;20024;-74
2023/09/20 09:01:58;;;;;;;2.08;1.50;;;;;;;20.95;54.50;100605.81;5113084;28;20038;-74
2023/09/20 09:04:23;;;;;;;2.05;1.02;;;;;;;20.96;54.53;100599.38;5115089;28;20038;-75
2023/09/20 09:06:49;;;;;;;2.03;1.13;;;;;;;20.96;54.82;100600.19;5113851;28;20079;-74
2023/09/20 09:09:14;;;;;;;1.58;0.90;;;;;;;20.96;54.81;100605.59;5113681;28;20129;-74
2023/09/20 09:11:40;;;;;;;2.85;1.25;;;;;;;20.68;54.56;100561.38;5115200;28;20039;-74
2023/09/20 09:14:05;;;;;;;2.00;1.42;;;;;;;20.85;54.67;100587.16;5121039;27;20039;-74
2023/09/20 09:16:33;;;;;;;1.63;1.48;;;;;;;20.84;54.64;100593.59;5107529;28;20048;-74
2023/09/20 09:18:58;;;;;;;2.13;1.10;;;;;;;20.97;54.58;100601.88;5122306;28;20051;-74
2023/09/20 09:21:25;;;;;;;2.33;1.15;;;;;;;20.91;54.87;100604.50;5112470;28;20389;-74
2023/09/20 09:23:50;;;;;;;1.45;0.93;;;;;;;20.76;54.70;100574.78;5115703;28;20055;-74
2023/09/20 09:26:16;;;;;;;1.85;1.10;;;;;;;20.88;54.61;100591.38;5122272;28;20031;-74
2023/09/20 09:28:42;;;;;;;1.30;1.20;;;;;;;20.99;54.66;100617.06;5114750;28;20036;-74
2023/09/20 09:31:08;;;;;;;1.98;1.30;;;;;;;20.80;54.87;100583.38;5118171;28;20037;-74
2023/09/20 09:33:37;;;;;;;2.25;1.27;;;;;;;20.46;54.53;100525.34;5106568;28;20031;-74
2023/09/20 09:36:03;;;;;;;;;;;;;;;20.99;54.87;100609.81;5111332;28;20389;-74
2023/09/20 09:38:32;;;;;;;2.17;1.20;;;;;;;20.66;54.83;100560.75;5124043;28;19965;-74
2023/09/20 09:40:58;;;;;;;1.80;1.20;;;;;;;20.97;54.94;100609.13;5113914;28;20709;-74
2023/09/20 09:43:24;;;;;;;1.73;1.40;;;;;;;20.72;54.49;100573.50;5124387;28;20066;-74
2023/09/20 09:45:53;;;;;;;1.30;1.02;;;;;;;20.74;54.68;100576.03;5122761;28;20016;-75
2023/09/20 09:48:19;;;;;;;2.00;1.10;;;;;;;20.77;54.64;100575.63;5105813;28;20028;-74
2023/09/20 09:50:46;;;;;;;1.67;1.20;;;;;;;20.77;54.98;100570.22;5110678;28;20031;-74
2023/09/20 09:53:15;;;;;;;1.20;0.90;;;;;;;20.80;54.91;100586.91;5120472;28;20032;-74
2023/09/20 09:55:41;;;;;;;1.52;1.10;;;;;;;20.70;54.89;100565.59;5116641;28;20097;-74
2023/09/20 09:58:08;;;;;;;1.58;1.02;;;;;;;20.90;54.69;100597.44;5117963;28;20118;-74
2023/09/20 10:00:36;;;;;;;2.63;1.23;;;;;;;20.92;54.54;100596.19;5116497;28;20057;-74
2023/09/20 10:03:11;;;;;;;1.85;1.13;;;;;;;20.96;54.58;100594.78;5107895;28;20024;-75
2023/09/20 10:05:38;;;;;;;2.22;1.20;;;;;;;20.81;54.71;100561.53;5116555;28;20041;-74
2023/09/20 10:08:05;;;;;;;1.50;1.00;;;;;;;20.78;54.67;100563.81;5105752;28;20034;-74
2023/09/20 10:10:30;;;;;;;1.30;1.00;;;;;;;20.68;54.64;100532.50;5106707;28;20032;-74
2023/09/20 10:12:56;;;;;;;1.40;1.08;;;;;;;20.64;54.76;100523.09;5119803;28;20084;-74
2023/09/20 10:15:21;;;;;;;1.98;1.23;;;;;;;20.81;54.99;100566.94;5114499;27;20043;-74
2023/09/20 10:17:59;;;;;;;1.35;1.05;;;;;;;20.74;54.93;100546.31;5110279;28;20024;-74
2023/09/20 10:20:54;;;;;;;1.75;1.20;;;;;;;20.87;54.63;100565.38;5112592;28;20020;-74
2023/09/20 10:23:22;;;;;;;1.00;0.90;;;;;;;20.94;55.04;100571.66;5107838;28;20055;-74
2023/09/20 10:25:48;;;;;;;1.83;1.20;;;;;;;20.95;55.07;100576.06;5108987;28;20028;-74
2023/09/20 10:28:17;;;;;;;1.85;1.35;;;;;;;20.93;54.66;100575.41;5105584;28;20026;-74
2023/09/20 10:31:01;;;;;;;2.40;1.50;;;;;;;21.04;55.07;100591.16;5105951;28;20039;-75
2023/09/20 10:33:51;;;;;;;1.92;1.10;;;;;;;21.04;54.73;100580.34;5121166;28;20577;-74
2023/09/20 10:36:22;;;;;;;1.42;1.20;;;;;;;20.97;54.64;100564.03;5107188;28;20027;-75
2023/09/20 10:38:47;;;;;;;1.80;1.10;;;;;;;21.05;54.72;100587.41;5092405;28;20051;-74
2023/09/20 10:41:14;;;;;;;1.30;0.80;;;;;;;21.07;55.05;100571.00;5107954;28;20016;-74
2023/09/20 10:43:41;;;;;;;2.58;1.30;;;;;;;21.08;55.01;100586.19;5107149;28;20110;-74
2023/09/20 10:46:17;;;;;;;1.88;1.05;;;;;;;20.94;54.88;100552.75;5121717;28;20400;-74
2023/09/20 10:48:51;;;;;;;1.65;1.20;;;;;;;21.09;55.11;100577.06;5116825;28;20023;-75
2023/09/20 10:51:52;;;;;;;1.17;1.05;;;;;;;20.94;54.84;100539.25;5107614;28;20031;-75
2023/09/20 10:54:29;;;;;;;1.63;1.15;;;;;;;20.92;54.92;100549.41;5114084;28;20054;-74
2023/09/20 10:57:02;;;;;;;2.45;1.30;;;;;;;21.10;54.62;100574.16;5112270;28;20028;-74
2023/09/20 10:59:28;;;;;;;1.30;1.20;;;;;;;20.77;54.87;100519.72;5097830;28;20115;-74
2023/09/20 11:01:55;;;;;;;1.45;1.10;;;;;;;21.12;55.00;100552.34;5111693;28;20027;-74
2023/09/20 11:04:20;;;;;;;1.95;1.10;;;;;;;20.90;54.91;100524.47;5108298;28;20058;-74
2023/09/20 11:06:49;;;;;;;1.92;1.30;;;;;;;20.77;54.81;100498.09;5110985;28;20386;-74
2023/09/20 11:09:15;;;;;;;1.42;1.08;;;;;;;21.12;55.08;100547.78;5111545;28;20059;-74
2023/09/20 11:11:42;;;;;;;1.75;1.10;;;;;;;21.13;54.91;100548.63;5106134;28;20032;-74
2023/09/20 11:14:08;;;;;;;2.45;1.38;;;;;;;21.01;55.10;100532.06;5115587;27;20222;-75
2023/09/20 11:16:33;;;;;;;1.98;1.38;;;;;;;20.89;54.85;100506.56;5111849;28;20015;-74
2023/09/20 11:18:59;;;;;;;1.73;1.23;;;;;;;21.05;54.85;100546.03;5121330;28;20026;-74
2023/09/20 11:21:24;;;;;;;1.98;1.10;;;;;;;21.15;54.91;100557.34;5117645;28;20023;-74
2023/09/20 11:23:51;;;;;;;1.85;1.33;;;;;;;21.09;55.00;100544.63;5111039;28;20039;-74
2023/09/20 11:26:29;;;;;;;1.95;1.10;;;;;;;21.09;54.98;100536.50;5095873;28;20031;-74
2023/09/20 11:28:54;;;;;;;2.20;1.30;;;;;;;20.93;55.27;100514.09;5119193;28;20028;-74
2023/09/20 11:31:27;;;;;;;1.38;1.10;;;;;;;21.01;54.96;100532.06;5110780;28;20039;-75
2023/09/20 11:34:00;;;;;;;1.88;1.77;;;;;;;20.79;54.94;100487.97;5115023;28;20057;-74
2023/09/20 11:36:28;;;;;;;2.03;1.30;;;;;;;20.81;55.07;100491.28;5120281;28;20032;-75
2023/09/20 11:38:54;;;;;;;1.50;1.20;;;;;;;21.04;55.15;100531.69;5106890;28;20024;-74
2023/09/20 11:41:26;;;;;;;1.58;1.15;;;;;;;21.02;54.93;100525.63;5114251;28;20031;-74
2023/09/20 11:43:58;;;;;;;1.83;1.35;;;;;;;21.09;54.87;100545.44;5113105;28;20694;-75
2023/09/20 11:46:27;;;;;;;1.13;0.88;;;;;;;21.09;55.21;100541.91;5107738;28;20043;-74
2023/09/20 11:49:08;;;;;;;1.98;1.30;;;;;;;21.09;54.98;100539.22;5120667;28;20076;-74
2023/09/20 11:51:35;;;;;;;2.20;1.20;;;;;;;21.17;55.02;100539.09;5121172;28;20488;-75
2023/09/20 11:54:03;;;;;;;3.15;1.23;;;;;;;21.14;55.07;100528.66;5108530;28;20042;-75
2023/09/20 11:56:32;;;;;;;1.75;1.30;;;;;;;21.17;55.19;100515.59;5105101;28;20061;-75
2023/09/20 11:59:02;;;;;;;1.63;1.27;;;;;;;20.93;55.00;100470.00;5108383;28;20036;-75
2023/09/20 12:01:32;;;;;;;1.42;1.20;;;;;;;20.93;55.24;100461.91;5114369;28;20028;-75
2023/09/20 12:03:58;;;;;;;1.67;1.00;;;;;;;21.14;54.98;100478.13;5114440;28;20023;-75
2023/09/20 12:06:26;;;;;;;1.58;1.20;;;;;;;21.08;55.24;100473.50;5107122;28;20034;-75
2023/09/20 12:08:55;;;;;;;1.73;1.17;;;;;;;20.77;55.00;100410.81;5112508;28;20047;-75